Time;durP1;ratioP1;P1;durP2;ratioP2;P2;SDS_P1;SDS_P2;PMS_P1;PMS_P2;Temp;Humidity;BMP_temperature;BMP_pressure;BME280_temperature;BME280_humidity;BME280_pressure;Samples;Min_cycle;Max_cycle;Signal;HPM_P1;HPM_P2
2023/12/05 00:01:04;;;;;;;;;;;2.70;1.00;;;;;;5014637;28;19917;-78
2023/12/05 00:09:17;;;;;;;;;;;2.80;1.00;;;;;;5019071;28;19967;-73
2023/12/05 00:11:43;;;;;;;;;;;2.80;1.00;;;;;;5013714;28;20314;-72
2023/12/05 00:14:08;;;;;;;;;;;2.90;1.00;;;;;;5014388;28;19914;-72
2023/12/05 00:16:34;;;;;;;;;;;2.90;1.00;;;;;;5014463;28;19910;-73
2023/12/05 00:19:00;;;;;;;;;;;2.90;1.00;;;;;;5013995;28;19920;-72
2023/12/05 00:21:25;;;;;;;;;;;2.90;1.00;;;;;;5014492;28;19952;-72
2023/12/05 00:24:04;;;;;;;;;;;;;;;;;;5014408;28;19909;-78
2023/12/05 00:26:35;;;;;;;;;;;3.00;1.00;;;;;;5014378;28;19910;-78
2023/12/05 00:29:34;;;;;;;;;;;2.90;1.00;;;;;;5014209;28;19928;-78
2023/12/05 00:32:16;;;;;;;;;;;2.90;1.00;;;;;;5014320;28;19909;-78
2023/12/05 00:34:46;;;;;;;;;;;3.00;1.00;;;;;;5013661;28;19920;-78
2023/12/05 00:37:34;;;;;;;;;;;3.00;1.00;;;;;;5013458;28;20357;-78
2023/12/05 00:40:04;;;;;;;;;;;3.00;1.00;;;;;;5013490;28;20276;-73
2023/12/05 00:42:30;;;;;;;;;;;3.00;1.00;;;;;;5018202;28;19918;-73
2023/12/05 00:44:55;;;;;;;;;;;3.00;1.00;;;;;;5018208;28;19909;-73
2023/12/05 00:47:21;;;;;;;;;;;3.00;1.00;;;;;;5028669;28;19917;-73
2023/12/05 00:49:47;;;;;;;;;;;3.00;1.00;;;;;;5018239;28;19918;-72
2023/12/05 00:52:12;;;;;;;;;;;3.00;1.00;;;;;;5017995;28;19909;-72
2023/12/05 00:54:38;;;;;;;;;;;3.10;1.00;;;;;;5017959;28;19921;-78
2023/12/05 00:57:04;;;;;;;;;;;3.00;1.00;;;;;;5028243;28;20335;-78
2023/12/05 00:59:35;;;;;;;;;;;3.00;1.00;;;;;;5018368;28;19910;-78
2023/12/05 01:02:04;;;;;;;;;;;3.00;1.00;;;;;;5017893;28;19910;-78
2023/12/05 01:05:04;;;;;;;;;;;3.00;1.00;;;;;;5017709;28;19910;-78
2023/12/05 01:07:40;;;;;;;;;;;3.00;1.00;;;;;;5030600;28;19920;-78
2023/12/05 01:10:06;;;;;;;;;;;3.00;1.00;;;;;;5023719;28;19948;-73
2023/12/05 01:12:31;;;;;;;;;;;3.00;1.00;;;;;;5017868;28;19984;-73
2023/12/05 01:14:57;;;;;;;;;;;3.00;1.00;;;;;;5017589;28;20497;-73
2023/12/05 01:17:23;;;;;;;;;;;3.00;1.00;;;;;;5017727;28;19916;-73
2023/12/05 01:19:49;;;;;;;;;;;3.00;1.00;;;;;;5017589;28;19918;-73
2023/12/05 01:22:14;;;;;;;;;;;3.00;1.00;;;;;;5017621;28;19945;-73
2023/12/05 01:24:58;;;;;;;;;;;3.10;1.00;;;;;;5017614;28;20273;-78
2023/12/05 01:27:34;;;;;;;;;;;3.10;1.00;;;;;;5017935;28;19952;-78
2023/12/05 01:30:00;;;;;;;;;;;3.00;1.00;;;;;;5017253;28;19909;-78
2023/12/05 01:32:34;;;;;;;;;;;3.00;1.00;;;;;;5029635;28;19916;-79
2023/12/05 01:35:04;;;;;;;;;;;3.00;1.00;;;;;;5027384;28;19920;-78
2023/12/05 01:40:34;;;;;;;;;;;3.00;1.00;;;;;;5033836;28;19916;-79
2023/12/05 01:43:04;;;;;;;;;;;3.00;1.00;;;;;;5018962;28;19917;-79
2023/12/05 01:46:04;;;;;;;;;;;3.00;1.00;;;;;;5015603;28;20016;-79
2023/12/05 01:48:58;;;;;;;;;;;3.00;1.00;;;;;;5017326;28;20008;-79
2023/12/05 01:51:35;;;;;;;;;;;3.00;1.00;;;;;;4997443;28;19914;-79
2023/12/05 01:54:00;;;;;;;;;;;3.10;1.00;;;;;;4999926;28;19910;-72
2023/12/05 01:59:34;;;;;;;;;;;3.10;1.00;;;;;;4999038;28;19936;-78
2023/12/05 02:02:04;;;;;;;;;;;3.10;1.00;;;;;;5016810;28;19909;-79
2023/12/05 02:04:35;;;;;;;;;;;3.10;1.00;;;;;;5016488;28;19910;-79
2023/12/05 02:07:05;;;;;;;;;;;3.10;1.00;;;;;;5016383;28;19920;-79
2023/12/05 02:09:35;;;;;;;;;;;3.10;1.00;;;;;;5016693;28;19909;-78
2023/12/05 02:12:01;;;;;;;;;;;3.10;1.00;;;;;;5024477;28;19914;-79
2023/12/05 02:14:35;;;;;;;;;;;3.10;1.00;;;;;;5014966;28;19909;-79
2023/12/05 02:17:15;;;;;;;;;;;3.10;1.00;;;;;;5026801;28;19913;-79
2023/12/05 02:19:46;;;;;;;;;;;3.10;1.00;;;;;;5023179;28;19910;-79
2023/12/05 02:22:34;;;;;;;;;;;3.10;1.00;;;;;;5018926;28;19913;-79
2023/12/05 02:25:34;;;;;;;;;;;3.20;1.00;;;;;;5016913;28;19913;-78
2023/12/05 02:28:34;;;;;;;;;;;3.10;1.00;;;;;;5024762;28;19917;-78
2023/12/05 02:31:05;;;;;;;;;;;3.20;1.00;;;;;;5016186;28;19916;-78
2023/12/05 02:33:35;;;;;;;;;;;3.20;1.00;;;;;;5030766;28;20300;-79
2023/12/05 02:36:23;;;;;;;;;;;3.20;1.00;;;;;;5017738;28;19917;-78
2023/12/05 02:38:57;;;;;;;;;;;3.20;1.00;;;;;;5016034;28;19913;-78
2023/12/05 02:41:25;;;;;;;;;;;3.10;1.00;;;;;;5025471;28;19918;-72
2023/12/05 02:44:11;;;;;;;;;;;3.10;1.00;;;;;;5016038;28;19913;-73
2023/12/05 02:46:47;;;;;;;;;;;3.10;1.00;;;;;;5017615;28;20390;-73
2023/12/05 02:49:22;;;;;;;;;;;3.20;1.00;;;;;;5020518;28;19917;-73
2023/12/05 02:51:48;;;;;;;;;;;3.20;1.00;;;;;;5015927;28;19914;-73
2023/12/05 02:54:22;;;;;;;;;;;3.10;1.00;;;;;;5018359;28;19914;-73
2023/12/05 02:57:04;;;;;;;;;;;3.10;1.00;;;;;;5023638;28;19920;-79
2023/12/05 03:02:34;;;;;;;;;;;3.20;1.00;;;;;;5021504;28;20324;-79
2023/12/05 03:05:05;;;;;;;;;;;3.20;1.00;;;;;;5019084;28;19917;-78
2023/12/05 03:07:34;;;;;;;;;;;3.20;1.00;;;;;;5017949;28;19925;-79
2023/12/05 03:10:04;;;;;;;;;;;3.20;1.00;;;;;;5015269;28;19913;-74
2023/12/05 03:12:34;;;;;;;;;;;3.20;1.00;;;;;;5015199;28;19914;-73
2023/12/05 03:15:00;;;;;;;;;;;3.20;1.00;;;;;;5015188;28;19909;-73
2023/12/05 03:17:26;;;;;;;;;;;3.20;1.00;;;;;;5017069;28;19910;-73
2023/12/05 03:19:52;;;;;;;;;;;3.20;1.00;;;;;;5019702;28;19959;-73
2023/12/05 03:22:18;;;;;;;;;;;3.20;1.00;;;;;;5022265;28;19966;-73
2023/12/05 03:24:46;;;;;;;;;;;3.20;1.00;;;;;;5019229;28;20004;-73
2023/12/05 03:27:16;;;;;;;;;;;3.20;1.00;;;;;;5015215;28;19913;-72
2023/12/05 03:29:42;;;;;;;;;;;3.20;1.00;;;;;;5014186;28;19917;-73
2023/12/05 03:32:07;;;;;;;;;;;3.20;1.00;;;;;;5014447;28;19909;-73
2023/12/05 03:34:34;;;;;;;;;;;3.20;1.00;;;;;;5015226;28;19920;-73
2023/12/05 03:37:04;;;;;;;;;;;3.20;1.00;;;;;;5014832;28;19917;-73
2023/12/05 03:39:30;;;;;;;;;;;3.20;1.00;;;;;;5014439;28;19961;-73
2023/12/05 03:41:55;;;;;;;;;;;3.20;1.00;;;;;;5015504;28;19921;-78
2023/12/05 03:44:28;;;;;;;;;;;3.20;1.00;;;;;;5015083;28;19909;-78
2023/12/05 03:47:12;;;;;;;;;;;3.20;1.00;;;;;;5020806;28;19920;-78
2023/12/05 03:49:38;;;;;;;;;;;;;;;;;;5014557;28;20332;-78
2023/12/05 03:55:09;;;;;;;;;;;3.20;1.00;;;;;;5012060;28;19921;-75
2023/12/05 03:57:35;;;;;;;;;;;3.20;1.00;;;;;;5014634;28;19910;-73
2023/12/05 04:00:00;;;;;;;;;;;3.20;1.00;;;;;;5014778;28;19910;-73
2023/12/05 04:02:26;;;;;;;;;;;3.20;1.00;;;;;;5014715;28;19913;-73
2023/12/05 04:04:52;;;;;;;;;;;3.20;1.00;;;;;;5020462;28;19919;-73
2023/12/05 04:07:18;;;;;;;;;;;3.20;1.00;;;;;;5017495;28;19918;-73
2023/12/05 04:09:45;;;;;;;;;;;3.10;1.00;;;;;;5014685;28;20428;-73
2023/12/05 04:12:10;;;;;;;;;;;3.20;1.00;;;;;;5014965;28;19909;-73
2023/12/05 04:14:36;;;;;;;;;;;3.20;1.00;;;;;;5014462;28;19932;-73
2023/12/05 04:17:10;;;;;;;;;;;3.20;1.00;;;;;;5014248;28;19917;-73
2023/12/05 04:19:36;;;;;;;;;;;3.20;1.00;;;;;;5020431;28;19963;-73
2023/12/05 04:22:16;;;;;;;;;;;3.10;1.00;;;;;;5028154;28;19910;-73
2023/12/05 04:24:46;;;;;;;;;;;3.20;1.00;;;;;;5014222;28;19956;-73
2023/12/05 04:30:52;;;;;;;;;;;3.20;1.00;;;;;;4994364;28;20049;-79
2023/12/05 04:36:52;;;;;;;;;;;3.30;1.00;;;;;;5016370;28;20001;-79
2023/12/05 04:42:21;;;;;;;;;;;;;;;;;;5014040;28;20380;-73
2023/12/05 04:44:47;;;;;;;;;;;3.30;1.00;;;;;;5013301;28;19909;-73
2023/12/05 04:47:13;;;;;;;;;;;3.30;1.00;;;;;;5013149;28;19921;-73
2023/12/05 04:49:38;;;;;;;;;;;3.30;1.00;;;;;;5013392;28;19921;-73
2023/12/05 04:52:04;;;;;;;;;;;3.20;1.00;;;;;;5012554;28;19916;-73
2023/12/05 04:54:34;;;;;;;;;;;3.20;1.00;;;;;;5013165;28;19913;-73
2023/12/05 05:00:04;;;;;;;;;;;3.20;1.00;;;;;;5019900;28;19920;-79
2023/12/05 05:03:04;;;;;;;;;;;3.20;1.00;;;;;;5012214;28;19921;-80
2023/12/05 05:14:20;;;;;;;;;;;3.20;1.00;;;;;;5003827;28;19920;-79
2023/12/05 05:20:04;;;;;;;;;;;3.10;1.00;;;;;;5024792;28;19967;-78
2023/12/05 05:26:04;;;;;;;;;;;3.30;1.00;;;;;;4994944;28;19920;-79
2023/12/05 05:28:30;;;;;;;;;;;3.30;1.00;;;;;;5015693;28;19961;-74
2023/12/05 05:30:55;;;;;;;;;;;3.30;1.00;;;;;;5015362;28;19945;-73
2023/12/05 05:33:22;;;;;;;;;;;3.30;1.00;;;;;;5013941;28;19913;-73
2023/12/05 05:35:52;;;;;;;;;;;3.40;1.00;;;;;;5028716;28;19913;-75
2023/12/05 05:38:22;;;;;;;;;;;;;;;;;;5020422;28;19909;-73
2023/12/05 05:41:02;;;;;;;;;;;3.40;1.00;;;;;;5022695;28;19917;-73
2023/12/05 05:43:40;;;;;;;;;;;3.40;1.00;;;;;;4957445;28;1793162;-78
2023/12/05 05:46:06;;;;;;;;;;;3.40;1.00;;;;;;5032246;28;20325;-79
2023/12/05 06:00:44;;;;;;;;;;;3.40;1.00;;;;;;5014916;28;20384;-79
2023/12/05 06:03:23;;;;;;;;;;;3.30;1.00;;;;;;5017023;28;19909;-79
2023/12/05 06:05:58;;;;;;;;;;;3.40;1.00;;;;;;5016726;28;19921;-78
2023/12/05 06:08:58;;;;;;;;;;;3.40;1.00;;;;;;5031202;28;19919;-78
2023/12/05 06:11:34;;;;;;;;;;;3.40;1.00;;;;;;5039650;28;20296;-76
2023/12/05 06:14:04;;;;;;;;;;;3.50;1.00;;;;;;5017589;28;19916;-78
2023/12/05 06:16:30;;;;;;;;;;;3.50;1.00;;;;;;5016118;28;19920;-75
2023/12/05 06:18:56;;;;;;;;;;;;;;;;;;5016517;28;19909;-73
2023/12/05 06:21:28;;;;;;;;;;;;;;;;;;5016254;28;20000;-78
2023/12/05 06:24:28;;;;;;;;;;;3.50;1.00;;;;;;5016253;28;19913;-77
2023/12/05 06:26:59;;;;;;;;;;;3.50;1.00;;;;;;5017943;28;19960;-81
2023/12/05 06:29:58;;;;;;;;;;;3.50;1.00;;;;;;5032276;28;19917;-81
2023/12/05 06:35:28;;;;;;;;;;;3.60;1.00;;;;;;5014276;28;19921;-82
2023/12/05 06:38:28;;;;;;;;;;;3.50;1.00;;;;;;4997992;28;20048;-78
2023/12/05 06:41:28;;;;;;;;;;;3.50;1.00;;;;;;5017472;28;19917;-78
2023/12/05 06:44:04;;;;;;;;;;;3.50;1.00;;;;;;5016570;28;19927;-75
2023/12/05 06:47:04;;;;;;;;;;;3.50;1.00;;;;;;5022978;28;19913;-75
2023/12/05 06:49:34;;;;;;;;;;;3.50;1.00;;;;;;5018379;28;19972;-75
2023/12/05 06:52:16;;;;;;;;;;;;;;;;;;5013437;28;19964;-75
2023/12/05 06:54:52;;;;;;;;;;;3.60;1.00;;;;;;5017112;28;19914;-75
2023/12/05 06:57:40;;;;;;;;;;;3.60;1.00;;;;;;5015713;28;19914;-76
2023/12/05 07:00:11;;;;;;;;;;;3.60;1.00;;;;;;5014984;28;20053;-74
2023/12/05 07:02:36;;;;;;;;;;;3.60;1.00;;;;;;5024937;28;19920;-74
2023/12/05 07:05:04;;;;;;;;;;;3.60;1.00;;;;;;5015216;28;19913;-74
2023/12/05 07:07:30;;;;;;;;;;;3.50;1.00;;;;;;5025798;28;19927;-74
2023/12/05 07:09:58;;;;;;;;;;;3.60;1.00;;;;;;5015408;28;20007;-74
2023/12/05 07:12:34;;;;;;;;;;;3.60;1.00;;;;;;5015727;28;20001;-74
2023/12/05 07:15:00;;;;;;;;;;;3.60;1.00;;;;;;5018691;28;19921;-75
2023/12/05 07:17:25;;;;;;;;;;;3.60;1.00;;;;;;5015134;28;19918;-74
2023/12/05 07:19:51;;;;;;;;;;;4.90;1.00;;;;;;5015947;28;19936;-78
2023/12/05 07:22:28;;;;;;;;;;;6.10;1.00;;;;;;5015119;28;20250;-78
2023/12/05 07:25:29;;;;;;;;;;;6.80;1.00;;;;;;5014612;28;19917;-78
2023/12/05 07:27:58;;;;;;;;;;;;;;;;;;5010106;28;19967;-78
2023/12/05 07:30:28;;;;;;;;;;;7.80;1.00;;;;;;5014541;28;20043;-79
2023/12/05 07:32:54;;;;;;;;;;;;;;;;;;5014412;28;19960;-77
2023/12/05 07:38:04;;;;;;;;;;;8.40;1.00;;;;;;5012449;28;19955;-78
2023/12/05 07:40:30;;;;;;;;;;;8.60;1.00;;;;;;5014550;28;19953;-78
2023/12/05 07:43:22;;;;;;;;;;;8.60;1.00;;;;;;5014674;28;19921;-78
2023/12/05 07:49:22;;;;;;;;;;;8.70;1.00;;;;;;5019909;28;19975;-78
2023/12/05 07:51:52;;;;;;;;;;;8.40;1.00;;;;;;5010483;28;19983;-78
2023/12/05 07:54:18;;;;;;;;;;;8.20;1.00;;;;;;5014493;28;20276;-78
2023/12/05 07:56:44;;;;;;;;;;;7.90;1.00;;;;;;5014472;28;20008;-78
2023/12/05 07:59:09;;;;;;;;;;;7.60;1.00;;;;;;5014629;28;19919;-74
2023/12/05 08:01:35;;;;;;;;;;;7.40;1.00;;;;;;5014123;28;19944;-74
2023/12/05 08:04:02;;;;;;;;;;;7.10;1.00;;;;;;5013896;28;19914;-74
2023/12/05 08:06:28;;;;;;;;;;;6.80;1.00;;;;;;5014320;28;19920;-74
2023/12/05 08:08:53;;;;;;;;;;;6.70;1.00;;;;;;5017262;28;19996;-74
2023/12/05 08:11:22;;;;;;;;;;;6.60;1.00;;;;;;5018551;28;20431;-74
2023/12/05 08:13:58;;;;;;;;;;;6.40;1.00;;;;;;5014929;28;19916;-78
2023/12/05 08:16:58;;;;;;;;;;;6.20;1.00;;;;;;5014685;28;19909;-78
2023/12/05 08:19:46;;;;;;;;;;;6.10;1.00;;;;;;5005607;28;19914;-78
2023/12/05 08:25:28;;;;;;;;;;;5.70;1.00;;;;;;5014057;28;20377;-78
2023/12/05 08:28:05;;;;;;;;;;;;;;;;;;5009592;28;19925;-78
2023/12/05 08:30:35;;;;;;;;;;;5.60;1.00;;;;;;5012648;28;19975;-78
2023/12/05 08:33:05;;;;;;;;;;;5.50;1.00;;;;;;5017409;28;20001;-81
2023/12/05 08:35:40;;;;;;;;;;;5.50;1.00;;;;;;5001811;28;20045;-78
2023/12/05 08:40:58;;;;;;;;;;;;;;;;;;5004251;28;20031;-79
2023/12/05 08:43:24;;;;;;;;;;;5.30;1.00;;;;;;5013151;28;19917;-72
2023/12/05 08:48:52;;;;;;;;;;;5.50;1.00;;;;;;4999101;28;19927;-79
2023/12/05 08:51:18;;;;;;;;;;;5.50;1.00;;;;;;5001132;28;19925;-77
2023/12/05 08:53:59;;;;;;;;;;;5.70;1.00;;;;;;5015418;28;19943;-76
2023/12/05 08:56:58;;;;;;;;;;;5.70;1.00;;;;;;5003156;28;20098;-77
2023/12/05 08:59:25;;;;;;;;;;;5.80;1.00;;;;;;5027615;28;19928;-76
2023/12/05 09:01:58;;;;;;;;;;;5.90;1.00;;;;;;5007915;28;19921;-76
2023/12/05 09:04:40;;;;;;;;;;;5.90;1.00;;;;;;4988818;28;19922;-77
2023/12/05 09:13:28;;;;;;;;;;;6.20;1.00;;;;;;5016452;28;19940;-76
2023/12/05 09:15:58;;;;;;;;;;;6.30;1.00;;;;;;5021693;28;19951;-77
2023/12/05 09:18:46;;;;;;;;;;;6.30;1.00;;;;;;5006225;28;19922;-76
2023/12/05 09:21:34;;;;;;;;;;;6.20;1.00;;;;;;5006229;28;19965;-76
2023/12/05 09:24:00;;;;;;;;;;;6.30;1.00;;;;;;5005488;28;19922;-76
2023/12/05 09:29:29;;;;;;;;;;;6.50;1.00;;;;;;5010561;28;19927;-77
2023/12/05 09:32:28;;;;;;;;;;;6.50;1.00;;;;;;5011122;28;19953;-76
2023/12/05 09:35:10;;;;;;;;;;;6.60;1.00;;;;;;5005246;28;19989;-76
2023/12/05 09:37:36;;;;;;;;;;;6.70;1.00;;;;;;5015407;28;19916;-76
2023/12/05 09:40:31;;;;;;;;;;;6.70;1.00;;;;;;4993179;28;19921;-77
2023/12/05 09:42:59;;;;;;;;;;;6.80;1.00;;;;;;5015505;28;19968;-76
2023/12/05 09:45:33;;;;;;;;;;;6.90;1.00;;;;;;5010353;28;19921;-76
2023/12/05 09:48:28;;;;;;;;;;;7.00;1.00;;;;;;4989082;28;20309;-76
2023/12/05 09:54:22;;;;;;;;;;;7.10;1.00;;;;;;5006501;28;20001;-76
2023/12/05 09:56:54;;;;;;;;;;;7.00;1.00;;;;;;5006747;28;20008;-76
2023/12/05 09:59:28;;;;;;;;;;;6.90;1.00;;;;;;5032083;28;19917;-76
2023/12/05 10:02:00;;;;;;;;;;;7.00;1.00;;;;;;5015412;28;19944;-76
2023/12/05 10:04:34;;;;;;;;;;;;;;;;;;5005855;28;19969;-76
2023/12/05 10:07:23;;;;;;;;;;;7.00;1.00;;;;;;5004770;28;19926;-77
2023/12/05 10:09:49;;;;;;;;;;;7.20;1.00;;;;;;5011319;28;20276;-76
2023/12/05 10:12:15;;;;;;;;;;;7.20;1.00;;;;;;4988963;28;19957;-76
2023/12/05 10:14:59;;;;;;;;;;;7.30;1.00;;;;;;5006303;28;19932;-76
2023/12/05 10:17:58;;;;;;;;;;;7.40;1.00;;;;;;5006265;28;20374;-77
2023/12/05 10:20:42;;;;;;;;;;;7.40;1.00;;;;;;5016340;28;19936;-78
2023/12/05 10:26:28;;;;;;;;;;;7.70;1.00;;;;;;5012102;28;20291;-78
2023/12/05 10:28:59;;;;;;;;;;;7.80;1.00;;;;;;5010929;28;19932;-74
2023/12/05 10:31:24;;;;;;;;;;;7.70;1.00;;;;;;5006075;28;19921;-74
2023/12/05 10:33:52;;;;;;;;;;;;;;;;;;5002937;28;19921;-74
2023/12/05 10:36:22;;;;;;;;;;;7.80;1.00;;;;;;5003446;28;19918;-74
2023/12/05 10:38:53;;;;;;;;;;;7.70;1.00;;;;;;5005356;28;19917;-74
2023/12/05 10:41:35;;;;;;;;;;;7.60;1.00;;;;;;5015953;28;19916;-75
2023/12/05 10:44:04;;;;;;;;;;;7.70;1.00;;;;;;5004565;28;19922;-74
2023/12/05 10:46:34;;;;;;;;;;;7.90;1.00;;;;;;5004949;28;19922;-74
2023/12/05 10:49:03;;;;;;;;;;;7.90;1.00;;;;;;5012466;28;20391;-74
2023/12/05 10:51:35;;;;;;;;;;;7.80;1.00;;;;;;5013919;28;19976;-74
2023/12/05 10:54:10;;;;;;;;;;;7.90;1.00;;;;;;5003875;28;19922;-74
2023/12/05 10:56:54;;;;;;;;;;;7.90;1.00;;;;;;5002290;28;19999;-74
2023/12/05 10:59:21;;;;;;;;;;;7.90;1.00;;;;;;5009675;28;20407;-74
2023/12/05 11:01:46;;;;;;;;;;;8.00;1.00;;;;;;5014407;28;19914;-74
2023/12/05 11:04:29;;;;;;;;;;;8.20;1.00;;;;;;5004513;28;19944;-74
2023/12/05 11:06:59;;;;;;;;;;;8.10;1.00;;;;;;5015794;28;19988;-74
2023/12/05 11:09:28;;;;;;;;;;;7.90;1.00;;;;;;5005395;28;19929;-74
2023/12/05 11:12:00;;;;;;;;;;;8.00;1.00;;;;;;5005154;28;19927;-72
2023/12/05 11:14:30;;;;;;;;;;;8.00;1.00;;;;;;5004953;28;19928;-73
2023/12/05 11:16:58;;;;;;;;;;;7.90;1.00;;;;;;5005246;28;19928;-78
2023/12/05 11:19:28;;;;;;;;;;;7.80;1.00;;;;;;5004035;28;20292;-78
2023/12/05 11:22:03;;;;;;;;;;;7.80;1.00;;;;;;5014440;28;19921;-77
2023/12/05 11:24:52;;;;;;;;;;;7.80;1.00;;;;;;5003104;28;19918;-77
2023/12/05 11:27:53;;;;;;;;;;;7.80;1.00;;;;;;5003882;28;19929;-78
2023/12/05 11:30:47;;;;;;;;;;;7.80;1.00;;;;;;5012754;28;20261;-78
2023/12/05 11:42:21;;;;;;;;;;;8.50;1.00;;;;;;5009676;28;19928;-79
2023/12/05 11:45:18;;;;;;;;;;;8.50;1.00;;;;;;4994813;28;19922;-77
2023/12/05 11:47:58;;;;;;;;;;;8.70;1.00;;;;;;5002691;28;19929;-78
2023/12/05 11:50:58;;;;;;;;;;;8.80;1.00;;;;;;5002537;28;19909;-77
2023/12/05 11:53:52;;;;;;;;;;;8.80;1.00;;;;;;5026032;28;19917;-77
2023/12/05 11:56:30;;;;;;;;;;;8.60;1.00;;;;;;5017924;28;19957;-78
2023/12/05 11:59:28;;;;;;;;;;;8.50;1.00;;;;;;4996670;28;19925;-78
2023/12/05 12:01:54;;;;;;;;;;;8.40;1.00;;;;;;5005452;28;19928;-74
2023/12/05 12:04:40;;;;;;;;;;;8.30;1.00;;;;;;5014451;28;19914;-74
2023/12/05 12:07:06;;;;;;;;;;;8.00;1.00;;;;;;5008709;28;20014;-74
2023/12/05 12:09:52;;;;;;;;;;;7.90;1.00;;;;;;5009943;28;20396;-75
2023/12/05 12:12:28;;;;;;;;;;;7.90;1.00;;;;;;5014313;28;19928;-75
2023/12/05 12:14:54;;;;;;;;;;;7.90;1.00;;;;;;5003786;28;19975;-74
2023/12/05 12:17:28;;;;;;;;;;;7.80;1.00;;;;;;5003424;28;20004;-78
2023/12/05 12:20:22;;;;;;;;;;;8.00;1.00;;;;;;5012980;28;19921;-78
2023/12/05 12:22:53;;;;;;;;;;;8.00;1.00;;;;;;5011825;28;19921;-77
2023/12/05 12:25:24;;;;;;;;;;;8.00;1.00;;;;;;4994846;28;19921;-78
2023/12/05 12:30:53;;;;;;;;;;;;;;;;;;5015872;28;19928;-79
2023/12/05 12:33:19;;;;;;;;;;;8.10;1.00;;;;;;5002426;28;19988;-78
2023/12/05 12:35:47;;;;;;;;;;;8.10;1.00;;;;;;5006025;28;20385;-77
2023/12/05 12:38:14;;;;;;;;;;;8.10;1.00;;;;;;5007401;28;19920;-74
2023/12/05 12:40:40;;;;;;;;;;;8.10;1.00;;;;;;5014380;28;19964;-74
2023/12/05 12:43:08;;;;;;;;;;;8.10;1.00;;;;;;5001300;28;19961;-74
2023/12/05 12:45:35;;;;;;;;;;;8.00;1.00;;;;;;5004509;28;19921;-74
2023/12/05 12:48:05;;;;;;;;;;;8.20;1.00;;;;;;5000819;28;19940;-74
2023/12/05 12:50:31;;;;;;;;;;;8.20;1.00;;;;;;5016823;28;19913;-73
2023/12/05 12:53:00;;;;;;;;;;;8.10;1.00;;;;;;5016479;28;19921;-73
2023/12/05 12:55:58;;;;;;;;;;;8.10;1.00;;;;;;5004588;28;19928;-73
2023/12/05 12:58:36;;;;;;;;;;;7.90;1.00;;;;;;4994687;28;19961;-73
2023/12/05 13:01:05;;;;;;;;;;;7.90;1.00;;;;;;5005970;28;20317;-73
2023/12/05 13:03:32;;;;;;;;;;;7.80;1.00;;;;;;5010730;28;20472;-72
2023/12/05 13:05:58;;;;;;;;;;;7.80;1.00;;;;;;5003702;28;19965;-72
2023/12/05 13:08:24;;;;;;;;;;;;;;;;;;5003671;28;19982;-72
2023/12/05 13:10:50;;;;;;;;;;;7.80;1.00;;;;;;5014417;28;19925;-72
2023/12/05 13:13:16;;;;;;;;;;;7.90;1.00;;;;;;5003220;28;19921;-74
2023/12/05 13:15:47;;;;;;;;;;;7.90;1.00;;;;;;4994857;28;19913;-74
2023/12/05 13:18:12;;;;;;;;;;;7.70;1.00;;;;;;5002138;28;20266;-74
2023/12/05 13:20:52;;;;;;;;;;;7.70;1.00;;;;;;5002974;28;19929;-77
2023/12/05 13:26:23;;;;;;;;;;;7.80;1.00;;;;;;5009269;28;19993;-76
2023/12/05 13:28:59;;;;;;;;;;;7.80;1.00;;;;;;5012739;28;19921;-77
2023/12/05 13:31:26;;;;;;;;;;;7.80;1.00;;;;;;5000141;28;19943;-73
2023/12/05 13:33:52;;;;;;;;;;;7.60;1.00;;;;;;5002377;28;20265;-73
2023/12/05 13:36:18;;;;;;;;;;;7.70;1.00;;;;;;5010317;28;19937;-74
2023/12/05 13:38:44;;;;;;;;;;;7.80;1.00;;;;;;5006915;28;20296;-74
2023/12/05 13:41:10;;;;;;;;;;;;;;;;;;5002920;28;19925;-73
2023/12/05 13:43:35;;;;;;;;;;;7.60;1.00;;;;;;5011920;28;19924;-73
2023/12/05 13:46:17;;;;;;;;;;;7.70;1.00;;;;;;5013610;28;19921;-76
2023/12/05 13:48:43;;;;;;;;;;;7.70;1.00;;;;;;5022765;28;20344;-76
2023/12/05 13:51:11;;;;;;;;;;;7.70;1.00;;;;;;5006489;28;19996;-76
2023/12/05 13:53:59;;;;;;;;;;;7.70;1.00;;;;;;5007269;28;19909;-75
2023/12/05 13:56:41;;;;;;;;;;;7.50;1.00;;;;;;5006534;28;19921;-76
2023/12/05 13:59:17;;;;;;;;;;;7.30;1.00;;;;;;5007400;28;19916;-75
2023/12/05 14:02:10;;;;;;;;;;;7.30;1.00;;;;;;5016783;28;19945;-76
2023/12/05 14:04:37;;;;;;;;;;;7.20;1.00;;;;;;5023129;28;19921;-76
2023/12/05 14:07:11;;;;;;;;;;;7.20;1.00;;;;;;5019922;28;19943;-78
2023/12/05 14:09:36;;;;;;;;;;;7.30;1.00;;;;;;5009663;28;20012;-78
2023/12/05 14:15:05;;;;;;;;;;;7.20;1.00;;;;;;5006573;28;20017;-78
2023/12/05 14:20:29;;;;;;;;;;;7.10;1.00;;;;;;5011146;28;19929;-77
2023/12/05 14:22:59;;;;;;;;;;;7.10;1.00;;;;;;5007183;28;19921;-77
2023/12/05 14:25:24;;;;;;;;;;;7.10;1.00;;;;;;5005174;28;19976;-77
2023/12/05 14:28:23;;;;;;;;;;;7.10;1.00;;;;;;5006921;28;19925;-77
2023/12/05 14:30:53;;;;;;;;;;;7.20;1.00;;;;;;5005061;28;19973;-77
2023/12/05 14:33:18;;;;;;;;;;;7.00;1.00;;;;;;5006896;28;19921;-77
2023/12/05 14:35:58;;;;;;;;;;;6.80;1.00;;;;;;5004965;28;19980;-78
2023/12/05 14:38:31;;;;;;;;;;;6.70;1.00;;;;;;5015761;28;19913;-77
2023/12/05 14:41:00;;;;;;;;;;;6.50;1.00;;;;;;5006257;28;20273;-77
2023/12/05 14:43:53;;;;;;;;;;;6.60;1.00;;;;;;5010584;28;20440;-77
2023/12/05 14:46:23;;;;;;;;;;;6.60;1.00;;;;;;5004225;28;19925;-77
2023/12/05 14:48:53;;;;;;;;;;;6.50;1.00;;;;;;5016574;28;19921;-77
2023/12/05 14:51:29;;;;;;;;;;;6.40;1.00;;;;;;5003586;28;19928;-77
2023/12/05 14:54:29;;;;;;;;;;;6.40;1.00;;;;;;4998359;28;19914;-77
2023/12/05 14:57:28;;;;;;;;;;;6.40;1.00;;;;;;5006272;28;19916;-77
2023/12/05 15:00:28;;;;;;;;;;;6.40;1.00;;;;;;5006257;28;20012;-77
2023/12/05 15:02:59;;;;;;;;;;;6.40;1.00;;;;;;5009825;28;19922;-77
2023/12/05 15:05:24;;;;;;;;;;;6.30;1.00;;;;;;5016394;28;19988;-77
2023/12/05 15:11:31;;;;;;;;;;;6.30;1.00;;;;;;5004935;28;20069;-77
2023/12/05 15:14:29;;;;;;;;;;;6.20;1.00;;;;;;5003469;28;19921;-77
2023/12/05 15:16:59;;;;;;;;;;;6.10;1.00;;;;;;5005453;28;19921;-73
2023/12/05 15:19:29;;;;;;;;;;;;;;;;;;5005555;28;20406;-74
2023/12/05 15:21:54;;;;;;;;;;;5.90;1.00;;;;;;5028078;28;19957;-74
2023/12/05 15:24:20;;;;;;;;;;;5.90;1.00;;;;;;4998573;28;19961;-74
2023/12/05 15:26:46;;;;;;;;;;;5.90;1.00;;;;;;5005867;28;20412;-74
2023/12/05 15:29:12;;;;;;;;;;;6.00;1.00;;;;;;5014830;28;19917;-74
2023/12/05 15:31:42;;;;;;;;;;;6.00;1.00;;;;;;5004742;28;19964;-74
2023/12/05 15:34:08;;;;;;;;;;;6.00;1.00;;;;;;5007115;28;19917;-74
2023/12/05 15:36:34;;;;;;;;;;;6.00;1.00;;;;;;5013988;28;19909;-75
2023/12/05 15:39:00;;;;;;;;;;;6.10;1.00;;;;;;5004788;28;19925;-74
2023/12/05 15:41:29;;;;;;;;;;;6.10;1.00;;;;;;5005321;28;19932;-74
2023/12/05 15:43:54;;;;;;;;;;;5.90;1.00;;;;;;5005870;28;19921;-74
2023/12/05 15:46:40;;;;;;;;;;;5.90;1.00;;;;;;5004949;28;19948;-73
2023/12/05 15:49:06;;;;;;;;;;;5.90;1.00;;;;;;4999595;28;19928;-74
2023/12/05 15:51:47;;;;;;;;;;;5.90;1.00;;;;;;5014789;28;20012;-74
2023/12/05 15:54:12;;;;;;;;;;;5.80;1.00;;;;;;5007959;28;19929;-74
2023/12/05 15:56:39;;;;;;;;;;;5.80;1.00;;;;;;5006476;28;19921;-74
2023/12/05 15:59:04;;;;;;;;;;;5.70;1.00;;;;;;5009759;28;19921;-74
2023/12/05 16:01:30;;;;;;;;;;;5.80;1.00;;;;;;5017347;28;19924;-75
2023/12/05 16:04:29;;;;;;;;;;;5.80;1.00;;;;;;5014917;28;19910;-79
2023/12/05 16:07:29;;;;;;;;;;;5.90;1.00;;;;;;5005087;28;20012;-79
2023/12/05 16:09:59;;;;;;;;;;;6.00;1.00;;;;;;5013497;28;19921;-79
2023/12/05 16:12:59;;;;;;;;;;;6.00;1.00;;;;;;5014674;28;19956;-79
2023/12/05 16:15:53;;;;;;;;;;;6.00;1.00;;;;;;5014188;28;19916;-79
2023/12/05 16:21:41;;;;;;;;;;;6.00;1.00;;;;;;5014189;28;19997;-78
2023/12/05 16:24:28;;;;;;;;;;;5.70;1.00;;;;;;5013591;28;19960;-79
2023/12/05 16:26:59;;;;;;;;;;;5.70;1.00;;;;;;5014332;28;20012;-79
2023/12/05 16:29:29;;;;;;;;;;;5.80;1.00;;;;;;5014166;28;19967;-79
2023/12/05 16:32:29;;;;;;;;;;;5.70;1.00;;;;;;5011572;28;19921;-79
2023/12/05 16:37:59;;;;;;;;;;;5.60;1.00;;;;;;5009920;28;19917;-76
2023/12/05 16:40:29;;;;;;;;;;;5.50;1.00;;;;;;5017087;28;19914;-76
2023/12/05 16:42:55;;;;;;;;;;;5.50;1.00;;;;;;5019374;28;20001;-76
2023/12/05 16:45:23;;;;;;;;;;;;;;;;;;5015951;28;20006;-76
2023/12/05 16:47:59;;;;;;;;;;;5.50;1.00;;;;;;5016928;28;19917;-75
2023/12/05 16:50:26;;;;;;;;;;;5.50;1.00;;;;;;5024070;28;19918;-75
2023/12/05 16:52:53;;;;;;;;;;;5.40;1.00;;;;;;5016159;28;19913;-76
2023/12/05 16:55:18;;;;;;;;;;;5.40;1.00;;;;;;5013291;28;20265;-76
2023/12/05 16:57:44;;;;;;;;;;;5.40;1.00;;;;;;5013368;28;19917;-76
2023/12/05 17:00:17;;;;;;;;;;;5.40;1.00;;;;;;5013690;28;19914;-76
2023/12/05 17:02:47;;;;;;;;;;;5.40;1.00;;;;;;5020805;28;19959;-75
2023/12/05 17:05:13;;;;;;;;;;;5.50;1.00;;;;;;5016872;28;20003;-72
2023/12/05 17:07:38;;;;;;;;;;;5.40;1.00;;;;;;5012098;28;20341;-72
2023/12/05 17:10:06;;;;;;;;;;;5.50;1.00;;;;;;5013559;28;19910;-72
2023/12/05 17:12:33;;;;;;;;;;;5.50;1.00;;;;;;5013973;28;20075;-72
2023/12/05 17:15:11;;;;;;;;;;;;;;;;;;5017595;28;20051;-72
2023/12/05 17:17:36;;;;;;;;;;;5.30;1.00;;;;;;5013239;28;19967;-72
2023/12/05 17:20:29;;;;;;;;;;;5.40;1.00;;;;;;5019265;28;20003;-77
2023/12/05 17:23:17;;;;;;;;;;;5.40;1.00;;;;;;5019680;28;20015;-76
2023/12/05 17:28:59;;;;;;;;;;;5.20;1.00;;;;;;5011996;28;19972;-76
2023/12/05 17:31:29;;;;;;;;;;;5.30;1.00;;;;;;5016486;28;19920;-77
2023/12/05 17:33:54;;;;;;;;;;;5.30;1.00;;;;;;5017121;28;19913;-72